Time;durP1;ratioP1;P1;durP2;ratioP2;P2;SDS_P1;SDS_P2;PMS_P1;PMS_P2;Temp;Humidity;BMP_temperature;BMP_pressure;BME280_temperature;BME280_humidity;BME280_pressure;Samples;Min_cycle;Max_cycle;Signal;HPM_P1;HPM_P2
2021/01/03 00:02:19;;;;;;;27.85;25.95;;;2.50;80.80;;;;;;5054101;28;20224;-78
2021/01/03 00:04:45;;;;;;;28.08;26.00;;;2.50;80.80;;;;;;5055096;28;20223;-76
2021/01/03 00:07:12;;;;;;;26.58;24.63;;;2.50;81.10;;;;;;5053493;28;20775;-76
2021/01/03 00:09:38;;;;;;;27.73;25.77;;;2.40;80.70;;;;;;5053769;28;20193;-76
2021/01/03 00:12:05;;;;;;;26.83;24.92;;;2.30;80.80;;;;;;5072342;28;20218;-76
2021/01/03 00:14:31;;;;;;;27.58;25.67;;;2.30;80.90;;;;;;5073368;28;20198;-76
2021/01/03 00:17:01;;;;;;;27.15;25.27;;;2.30;81.30;;;;;;5073474;28;20299;-77
2021/01/03 00:19:28;;;;;;;26.10;24.40;;;2.40;80.70;;;;;;5073835;28;20208;-77
2021/01/03 00:21:55;;;;;;;27.45;25.55;;;2.30;80.80;;;;;;5056718;28;20196;-77
2021/01/03 00:24:22;;;;;;;27.63;25.58;;;2.20;80.90;;;;;;5053425;28;20304;-77
2021/01/03 00:26:48;;;;;;;25.77;23.98;;;2.20;80.90;;;;;;5053155;28;20219;-77
2021/01/03 00:29:18;;;;;;;27.48;25.48;;;2.30;81.20;;;;;;5053718;28;20196;-77
2021/01/03 00:31:46;;;;;;;26.15;24.25;;;2.30;80.90;;;;;;5054000;28;20258;-77
2021/01/03 00:34:13;;;;;;;26.20;24.30;;;2.30;80.90;;;;;;5053361;28;20254;-77
2021/01/03 00:36:40;;;;;;;25.75;24.05;;;2.20;81.20;;;;;;5053017;28;20226;-77
2021/01/03 00:39:07;;;;;;;27.45;25.45;;;2.40;80.60;;;;;;5053076;28;20201;-77
2021/01/03 00:41:33;;;;;;;26.65;24.85;;;2.30;80.60;;;;;;5064410;28;20200;-77
2021/01/03 00:44:00;;;;;;;26.33;24.63;;;2.40;80.80;;;;;;5073035;28;20565;-77
2021/01/03 00:46:26;;;;;;;27.30;25.50;;;2.30;80.80;;;;;;5073269;28;20292;-77
2021/01/03 00:48:53;;;;;;;26.40;24.50;;;2.30;80.70;;;;;;5073180;28;20196;-77
2021/01/03 00:51:20;;;;;;;27.20;25.40;;;2.30;81.10;;;;;;5063233;28;20192;-77
2021/01/03 00:53:46;;;;;;;26.17;24.45;;;2.30;80.90;;;;;;5053276;28;20191;-77
2021/01/03 00:56:13;;;;;;;53.03;28.50;;;2.20;80.70;;;;;;5052780;28;20223;-77
2021/01/03 00:58:39;;;;;;;25.95;24.15;;;2.10;81.50;;;;;;5053108;28;20231;-77
2021/01/03 01:01:06;;;;;;;25.95;24.25;;;2.20;82.10;;;;;;5060282;28;20676;-77
2021/01/03 01:03:32;;;;;;;26.38;24.63;;;2.20;81.20;;;;;;5073023;28;20248;-77
2021/01/03 01:05:59;;;;;;;26.15;24.15;;;2.20;81.40;;;;;;5072614;28;20223;-77
2021/01/03 01:08:27;;;;;;;26.42;24.55;;;2.40;80.50;;;;;;5073022;28;20210;-77
2021/01/03 01:10:53;;;;;;;25.73;24.00;;;2.50;79.90;;;;;;5072885;28;20212;-77
2021/01/03 01:13:19;;;;;;;25.70;23.95;;;2.50;80.30;;;;;;5065196;28;20192;-77
2021/01/03 01:15:46;;;;;;;26.15;24.27;;;2.50;80.60;;;;;;5052531;28;20698;-77
2021/01/03 01:18:12;;;;;;;26.08;24.33;;;2.50;80.50;;;;;;5065278;28;20592;-77
2021/01/03 01:20:39;;;;;;;26.25;24.35;;;2.40;79.70;;;;;;5073950;28;20227;-77
2021/01/03 01:23:05;;;;;;;26.70;24.80;;;2.30;80.40;;;;;;5075370;28;20321;-77
2021/01/03 01:25:33;;;;;;;26.45;24.75;;;2.40;80.30;;;;;;5073656;28;20227;-77
2021/01/03 01:28:00;;;;;;;26.33;24.48;;;2.30;80.80;;;;;;5072843;28;20207;-77
2021/01/03 01:30:30;;;;;;;25.80;24.20;;;2.30;80.60;;;;;;5072700;28;20203;-77
2021/01/03 01:32:57;;;;;;;27.30;25.40;;;2.30;80.60;;;;;;5068442;28;20185;-77
2021/01/03 01:35:27;;;;;;;26.67;24.88;;;2.30;81.20;;;;;;5052501;28;20662;-77
2021/01/03 01:37:54;;;;;;;25.90;24.00;;;2.20;81.10;;;;;;5052643;28;20677;-77
2021/01/03 01:40:23;;;;;;;26.30;24.58;;;2.10;81.40;;;;;;5052740;28;20288;-77
2021/01/03 01:42:51;;;;;;;28.23;26.15;;;2.10;81.50;;;;;;5055131;28;20191;-77
2021/01/03 01:45:19;;;;;;;27.35;25.45;;;2.20;81.40;;;;;;5076258;28;20211;-77
2021/01/03 01:47:49;;;;;;;26.50;24.75;;;2.20;81.30;;;;;;5076011;28;20211;-77
2021/01/03 01:50:18;;;;;;;27.52;25.52;;;2.30;81.10;;;;;;5076521;28;20615;-77
2021/01/03 01:52:49;;;;;;;27.05;25.05;;;2.30;80.70;;;;;;5074217;28;20192;-77
2021/01/03 01:55:20;;;;;;;26.55;24.65;;;2.20;81.20;;;;;;5056343;28;20298;-77
2021/01/03 01:57:54;;;;;;;27.05;25.25;;;2.10;81.50;;;;;;5056213;28;20613;-77
2021/01/03 02:00:25;;;;;;;28.25;26.15;;;2.20;82.50;;;;;;5056348;28;20282;-77
2021/01/03 02:03:00;;;;;;;28.15;26.05;;;2.30;81.30;;;;;;5058796;28;20195;-77
2021/01/03 02:05:32;;;;;;;26.30;24.58;;;2.20;81.10;;;;;;5075565;28;20689;-77
2021/01/03 02:08:04;;;;;;;26.48;24.67;;;2.20;81.80;;;;;;5075956;28;20245;-77
2021/01/03 02:10:33;;;;;;;27.15;25.25;;;2.20;81.50;;;;;;5075953;28;20202;-77
2021/01/03 02:13:16;;;;;;;27.25;25.25;;;2.20;82.20;;;;;;5076036;28;20192;-77
2021/01/03 02:15:43;;;;;;;28.15;26.15;;;2.20;82.50;;;;;;5068631;28;20192;-78
2021/01/03 02:18:12;;;;;;;28.63;26.42;;;2.10;82.60;;;;;;5056428;28;20642;-77
2021/01/03 02:20:50;;;;;;;28.05;26.05;;;2.00;83.60;;;;;;5056027;28;20197;-77
2021/01/03 02:23:24;;;;;;;26.35;24.58;;;2.20;83.60;;;;;;5055897;28;20200;-77
2021/01/03 02:25:52;;;;;;;27.23;25.23;;;2.20;83.90;;;;;;5055700;28;20620;-77
2021/01/03 02:28:22;;;;;;;28.88;26.30;;;2.00;84.90;;;;;;5068106;28;20542;-77
2021/01/03 02:30:52;;;;;;;26.98;24.63;;;2.00;85.90;;;;;;5075031;28;20196;-77
2021/01/03 02:33:24;;;;;;;27.25;25.40;;;2.00;86.90;;;;;;5075797;28;20196;-77
2021/01/03 02:35:55;;;;;;;28.73;26.60;;;2.10;86.50;;;;;;5075450;28;20566;-77
2021/01/03 02:38:25;;;;;;;29.08;26.67;;;2.20;86.40;;;;;;5062263;28;20288;-77
2021/01/03 02:40:52;;;;;;;28.42;26.23;;;2.20;86.10;;;;;;5055535;28;20204;-77
2021/01/03 02:43:18;;;;;;;28.92;26.58;;;2.10;87.80;;;;;;5055609;28;20672;-77
2021/01/03 02:45:45;;;;;;;28.92;26.77;;;2.10;87.30;;;;;;5055164;28;20213;-77
2021/01/03 02:48:18;;;;;;;28.80;26.70;;;2.10;87.10;;;;;;5066179;28;20666;-77
2021/01/03 02:50:44;;;;;;;29.52;27.02;;;2.10;87.60;;;;;;5073746;28;20200;-77
2021/01/03 02:53:11;;;;;;;29.08;26.90;;;1.90;88.40;;;;;;5075050;28;20196;-77
2021/01/03 02:55:37;;;;;;;28.48;26.25;;;2.00;88.50;;;;;;5074458;28;20192;-77
2021/01/03 02:58:05;;;;;;;29.27;27.00;;;2.10;88.80;;;;;;5074243;28;20283;-77
2021/01/03 03:00:34;;;;;;;28.17;25.98;;;2.00;89.10;;;;;;5074898;28;20669;-77
2021/01/03 03:03:01;;;;;;;29.80;27.35;;;2.00;91.00;;;;;;5075107;28;20366;-77
2021/01/03 03:05:28;;;;;;;29.85;27.48;;;1.80;90.80;;;;;;5074632;28;20226;-77
2021/01/03 03:07:55;;;;;;;717.58;110.10;;;1.70;91.30;;;;;;5071968;28;20184;-77
2021/01/03 03:10:23;;;;;;;31.02;28.38;;;1.70;92.60;;;;;;5074850;28;20676;-77
2021/01/03 03:12:50;;;;;;;29.25;27.05;;;1.60;93.00;;;;;;5075182;28;20204;-77
2021/01/03 03:15:20;;;;;;;30.13;27.75;;;1.60;93.10;;;;;;5074572;28;20196;-77
2021/01/03 03:17:46;;;;;;;31.63;28.98;;;1.50;92.60;;;;;;5074625;28;20808;-77
2021/01/03 03:20:13;;;;;;;40.35;30.27;;;1.50;93.10;;;;;;5065839;28;20188;-77
2021/01/03 03:22:39;;;;;;;31.02;28.38;;;1.40;93.00;;;;;;5070867;28;20249;-77
2021/01/03 03:25:08;;;;;;;32.63;30.02;;;1.20;93.10;;;;;;5074445;28;20212;-77
2021/01/03 03:27:35;;;;;;;32.25;29.65;;;1.30;93.70;;;;;;5074483;28;20636;-77
2021/01/03 03:30:03;;;;;;;1070.10;166.32;;;1.40;93.90;;;;;;5074599;28;20665;-77
2021/01/03 03:32:30;;;;;;;31.90;29.30;;;1.40;93.70;;;;;;5063257;28;20661;-77
2021/01/03 03:34:56;;;;;;;32.47;29.80;;;1.50;93.70;;;;;;5070316;28;20271;-77
2021/01/03 03:37:22;;;;;;;32.50;30.00;;;1.40;93.60;;;;;;5074895;28;20308;-77
2021/01/03 03:39:49;;;;;;;32.83;30.25;;;1.40;93.60;;;;;;5074474;28;20192;-77
2021/01/03 03:42:15;;;;;;;32.00;29.40;;;1.40;93.40;;;;;;5064983;28;20194;-77
2021/01/03 03:44:43;;;;;;;31.73;28.95;;;1.40;93.60;;;;;;5073958;28;20216;-77
2021/01/03 03:47:10;;;;;;;31.92;29.20;;;1.50;93.60;;;;;;5073900;28;20329;-77
2021/01/03 03:49:37;;;;;;;82.68;33.42;;;1.60;93.20;;;;;;5074350;28;20205;-77
2021/01/03 03:52:05;;;;;;;99.22;34.17;;;1.60;92.10;;;;;;5063416;28;20295;-77
2021/01/03 03:54:32;;;;;;;32.17;29.48;;;1.60;92.30;;;;;;5054088;28;20200;-77
2021/01/03 03:57:01;;;;;;;31.48;28.95;;;1.60;92.40;;;;;;5053937;28;20337;-77
2021/01/03 03:59:27;;;;;;;32.25;29.65;;;1.60;92.00;;;;;;5054243;28;20223;-77
2021/01/03 04:01:54;;;;;;;32.10;29.27;;;1.60;93.60;;;;;;5062663;28;20248;-77
2021/01/03 04:04:21;;;;;;;31.55;28.80;;;1.60;92.50;;;;;;5074135;28;20246;-77
2021/01/03 04:06:49;;;;;;;34.92;31.83;;;1.70;91.40;;;;;;5072714;28;20722;-77
2021/01/03 04:09:16;;;;;;;32.55;29.85;;;1.70;91.10;;;;;;5074104;28;20198;-77
2021/01/03 04:11:45;;;;;;;32.88;30.08;;;1.60;90.70;;;;;;5067071;28;20196;-77
2021/01/03 04:14:13;;;;;;;32.67;30.05;;;1.50;91.10;;;;;;5053899;28;20210;-77
2021/01/03 04:16:45;;;;;;;32.72;30.05;;;1.40;91.30;;;;;;5053602;28;20693;-77
2021/01/03 04:19:12;;;;;;;34.08;31.35;;;1.30;92.20;;;;;;5053808;28;20203;-77
2021/01/03 04:21:39;;;;;;;34.17;31.25;;;1.40;92.20;;;;;;5059120;28;20560;-77
2021/01/03 04:24:08;;;;;;;32.30;29.63;;;1.50;92.00;;;;;;5073677;28;20538;-77
2021/01/03 04:26:34;;;;;;;32.10;29.30;;;1.60;91.80;;;;;;5073265;28;20223;-77
2021/01/03 04:29:00;;;;;;;31.27;28.63;;;1.70;91.50;;;;;;5073524;28;20199;-77
2021/01/03 04:31:27;;;;;;;32.53;30.02;;;1.60;91.60;;;;;;5069469;28;20261;-77
2021/01/03 04:33:53;;;;;;;31.83;29.23;;;1.60;91.80;;;;;;5060604;28;20195;-77
2021/01/03 04:36:20;;;;;;;32.38;29.60;;;1.60;91.30;;;;;;5054728;28;20344;-77
2021/01/03 04:38:48;;;;;;;34.33;31.42;;;1.60;91.30;;;;;;5054416;28;20710;-77
2021/01/03 04:41:23;;;;;;;33.88;30.88;;;1.50;92.20;;;;;;5053367;28;20204;-77
2021/01/03 04:43:50;;;;;;;37.33;31.92;;;1.40;92.40;;;;;;5053261;28;20679;-77
2021/01/03 04:46:21;;;;;;;33.28;30.52;;;1.50;93.70;;;;;;5053381;28;20278;-77
2021/01/03 04:48:51;;;;;;;33.42;30.73;;;1.50;92.80;;;;;;5052959;28;20357;-77
2021/01/03 04:51:30;;;;;;;32.30;29.55;;;1.40;92.70;;;;;;5053177;28;20203;-77
2021/01/03 04:54:04;;;;;;;103.18;34.78;;;1.50;92.40;;;;;;5053172;28;20198;-77
2021/01/03 04:56:44;;;;;;;32.53;29.75;;;1.40;92.30;;;;;;5053587;28;20220;-77
2021/01/03 04:59:16;;;;;;;32.63;29.88;;;1.40;94.00;;;;;;5073061;28;20196;-77
2021/01/03 05:02:19;;;;;;;30.88;28.23;;;1.40;94.00;;;;;;5072987;28;20203;-77
2021/01/03 05:05:05;;;;;;;37.88;30.27;;;1.50;93.70;;;;;;5073041;28;20196;-77
2021/01/03 05:07:34;;;;;;;32.33;29.33;;;1.40;92.90;;;;;;5053023;28;20222;-77
2021/01/03 05:10:10;;;;;;;32.30;29.70;;;1.50;93.30;;;;;;5061053;28;20240;-77
2021/01/03 05:12:47;;;;;;;33.05;30.33;;;1.50;92.50;;;;;;5073313;28;20215;-77
2021/01/03 05:15:20;;;;;;;32.08;29.27;;;1.40;92.40;;;;;;5064986;28;20648;-77
2021/01/03 05:17:47;;;;;;;33.83;31.02;;;1.40;92.60;;;;;;5072970;28;20204;-77
2021/01/03 05:20:14;;;;;;;31.75;29.30;;;1.40;92.80;;;;;;5075257;28;20316;-77
2021/01/03 05:22:40;;;;;;;32.13;29.30;;;1.50;92.40;;;;;;5073077;28;20274;-77
2021/01/03 05:25:10;;;;;;;32.13;29.42;;;1.50;92.00;;;;;;5066082;28;20584;-77
2021/01/03 05:27:36;;;;;;;30.73;28.30;;;1.50;92.00;;;;;;5052600;28;20216;-77
2021/01/03 05:30:18;;;;;;;33.40;30.50;;;1.40;92.10;;;;;;5052839;28;20197;-77
2021/01/03 05:32:45;;;;;;;32.92;30.23;;;1.60;91.50;;;;;;5052580;28;20693;-77
2021/01/03 05:35:21;;;;;;;34.20;31.40;;;1.60;91.20;;;;;;5059263;28;20187;-77
2021/01/03 05:37:49;;;;;;;32.35;29.75;;;1.50;91.40;;;;;;5071713;28;20215;-77
2021/01/03 05:40:29;;;;;;;31.23;28.60;;;1.30;92.10;;;;;;5072469;28;20203;-77
2021/01/03 05:43:10;;;;;;;33.92;31.27;;;1.30;92.10;;;;;;5072664;28;20201;-77
2021/01/03 05:45:42;;;;;;;31.33;28.70;;;1.10;92.80;;;;;;5062046;28;20682;-77
2021/01/03 05:48:21;;;;;;;32.05;29.38;;;1.10;93.50;;;;;;5052173;28;20204;-77
2021/01/03 05:50:47;;;;;;;33.42;30.58;;;1.20;93.30;;;;;;5052502;28;20196;-77
2021/01/03 05:53:18;;;;;;;32.53;29.73;;;1.20;92.80;;;;;;5071958;28;20195;-77
2021/01/03 05:55:55;;;;;;;32.42;29.83;;;1.30;92.40;;;;;;5072205;28;20564;-77
2021/01/03 05:58:27;;;;;;;34.20;31.30;;;1.20;92.80;;;;;;5072597;28;20202;-77
2021/01/03 06:00:55;;;;;;;33.75;30.85;;;1.30;92.60;;;;;;5063425;28;20233;-77
2021/01/03 06:03:26;;;;;;;34.25;31.35;;;1.40;92.70;;;;;;5052491;28;20206;-77
2021/01/03 06:05:55;;;;;;;32.22;29.73;;;1.40;92.50;;;;;;5051949;28;20689;-77
2021/01/03 06:08:24;;;;;;;32.17;29.55;;;1.40;92.20;;;;;;5052423;28;20200;-77
2021/01/03 06:10:51;;;;;;;32.55;29.90;;;1.40;92.30;;;;;;5060152;28;20192;-77
2021/01/03 06:13:20;;;;;;;31.52;28.92;;;1.40;91.80;;;;;;5072517;28;20256;-77
2021/01/03 06:15:51;;;;;;;33.15;30.27;;;1.30;92.30;;;;;;5071918;28;20227;-77
2021/01/03 06:18:30;;;;;;;32.33;29.58;;;1.30;92.40;;;;;;5072337;28;20221;-77
2021/01/03 06:20:58;;;;;;;31.98;29.48;;;1.40;92.40;;;;;;5063511;28;20209;-77
2021/01/03 06:23:33;;;;;;;29.73;27.48;;;1.30;92.10;;;;;;5054239;28;20200;-77
2021/01/03 06:26:04;;;;;;;32.22;29.70;;;1.30;92.10;;;;;;5071648;28;20214;-77
2021/01/03 06:28:40;;;;;;;32.50;29.80;;;1.20;92.50;;;;;;5072123;28;20229;-77
2021/01/03 06:31:28;;;;;;;32.53;29.60;;;1.20;92.60;;;;;;5066089;28;20232;-77
2021/01/03 06:34:10;;;;;;;31.42;28.80;;;1.20;92.40;;;;;;5055842;28;20554;-77
2021/01/03 06:36:47;;;;;;;32.95;30.35;;;1.20;92.50;;;;;;5055497;28;20217;-77
2021/01/03 06:39:28;;;;;;;34.20;31.40;;;1.30;93.10;;;;;;5055642;28;20555;-77
2021/01/03 06:41:58;;;;;;;39.65;30.85;;;1.40;92.40;;;;;;5069655;28;20647;-77
2021/01/03 06:44:54;;;;;;;34.28;31.10;;;1.50;92.00;;;;;;5075477;28;20184;-77
2021/01/03 06:48:06;;;;;;;31.17;28.55;;;1.50;91.50;;;;;;5075088;28;20212;-77
2021/01/03 06:51:10;;;;;;;34.08;31.20;;;1.40;91.60;;;;;;5030771;28;20236;-77
2021/01/03 06:54:29;;;;;;;33.60;30.52;;;1.50;91.50;;;;;;5055157;28;20595;-77
2021/01/03 06:57:44;;;;;;;33.35;30.45;;;1.40;91.50;;;;;;5055215;28;20224;-77
2021/01/03 07:00:35;;;;;;;32.97;30.27;;;1.30;93.20;;;;;;5059443;28;20557;-77
2021/01/03 07:03:04;;;;;;;32.33;29.60;;;1.30;92.70;;;;;;5075327;28;20196;-77
2021/01/03 07:05:31;;;;;;;35.05;31.70;;;1.30;92.40;;;;;;5074950;28;20223;-77
2021/01/03 07:08:02;;;;;;;35.55;32.10;;;1.40;92.10;;;;;;5075082;28;20686;-76
2021/01/03 07:10:36;;;;;;;34.97;31.95;;;1.30;92.00;;;;;;5075205;28;20207;-77
2021/01/03 07:13:03;;;;;;;34.80;31.75;;;1.20;92.30;;;;;;5065375;28;20202;-77
2021/01/03 07:15:40;;;;;;;34.40;31.40;;;1.20;92.70;;;;;;5062688;28;20210;-76
2021/01/03 07:18:30;;;;;;;33.83;31.00;;;1.30;93.90;;;;;;5077997;28;20205;-77
2021/01/03 07:21:13;;;;;;;31.08;28.48;;;1.40;92.50;;;;;;5075223;28;20552;-77
2021/01/03 07:23:43;;;;;;;32.90;29.98;;;1.30;91.60;;;;;;5060317;28;20199;-77
2021/01/03 07:26:19;;;;;;;35.30;32.08;;;1.40;91.80;;;;;;5071449;28;20253;-77
2021/01/03 07:28:49;;;;;;;33.20;30.30;;;1.40;91.20;;;;;;5076617;28;20610;-77
2021/01/03 07:31:36;;;;;;;33.88;30.98;;;1.30;91.60;;;;;;5076509;28;20277;-77
2021/01/03 07:34:05;;;;;;;32.85;30.05;;;1.30;92.10;;;;;;5057109;28;20199;-77
2021/01/03 07:36:51;;;;;;;31.85;29.25;;;1.40;91.30;;;;;;5054273;28;20276;-77
2021/01/03 07:39:30;;;;;;;31.45;28.85;;;1.20;91.90;;;;;;5054614;28;20257;-77
2021/01/03 07:42:18;;;;;;;33.40;30.40;;;1.20;91.90;;;;;;5054290;28;20206;-77
2021/01/03 07:44:45;;;;;;;637.60;105.00;;;1.30;92.70;;;;;;5066654;28;20669;-77
2021/01/03 07:47:31;;;;;;;33.38;30.35;;;1.40;93.40;;;;;;5073487;28;20219;-77
2021/01/03 07:50:20;;;;;;;33.08;29.98;;;1.40;95.40;;;;;;5074380;28;20206;-77
2021/01/03 07:52:47;;;;;;;34.10;31.10;;;1.50;93.70;;;;;;5073972;28;20196;-77
2021/01/03 07:55:24;;;;;;;36.45;32.97;;;1.60;92.90;;;;;;5074462;28;20191;-77
2021/01/03 07:57:54;;;;;;;34.58;31.48;;;1.70;92.00;;;;;;5074013;28;20273;-77
2021/01/03 08:00:22;;;;;;;34.05;31.10;;;1.60;91.60;;;;;;5074283;28;20203;-77
2021/01/03 08:02:54;;;;;;;34.78;31.75;;;1.60;91.60;;;;;;5064796;28;20681;-77
2021/01/03 08:05:23;;;;;;;33.70;30.50;;;1.70;91.10;;;;;;5053945;28;20209;-77
2021/01/03 08:07:50;;;;;;;33.63;30.42;;;1.80;90.90;;;;;;5053847;28;20219;-77
2021/01/03 08:10:17;;;;;;;33.20;30.20;;;1.80;91.00;;;;;;5054124;28;20204;-77
2021/01/03 08:12:47;;;;;;;33.17;30.40;;;1.80;90.10;;;;;;5054942;28;20203;-77
2021/01/03 08:15:28;;;;;;;33.03;30.23;;;1.70;90.50;;;;;;5053776;28;20199;-77
2021/01/03 08:18:02;;;;;;;33.13;29.85;;;1.70;91.10;;;;;;5053845;28;20200;-77
2021/01/03 08:20:29;;;;;;;49.60;31.75;;;1.70;90.90;;;;;;5053791;28;20211;-77
2021/01/03 08:23:09;;;;;;;32.83;30.00;;;1.70;91.60;;;;;;5069677;28;20192;-77
2021/01/03 08:25:35;;;;;;;33.45;30.52;;;1.90;90.70;;;;;;5073410;28;20218;-77
2021/01/03 08:28:07;;;;;;;31.67;28.83;;;1.80;89.90;;;;;;5073464;28;20200;-77
2021/01/03 08:30:35;;;;;;;33.25;30.38;;;1.80;89.90;;;;;;5066423;28;20291;-77
2021/01/03 08:33:07;;;;;;;31.83;29.25;;;1.70;90.20;;;;;;5053592;28;20197;-77
2021/01/03 08:35:35;;;;;;;28.75;26.55;;;1.80;90.30;;;;;;5061440;28;20191;-77
2021/01/03 08:38:02;;;;;;;30.52;27.92;;;1.80;89.20;;;;;;5073226;28;20617;-77
2021/01/03 08:40:31;;;;;;;30.02;27.52;;;1.70;89.30;;;;;;5067127;28;20220;-77
2021/01/03 08:43:02;;;;;;;29.77;27.33;;;1.70;90.70;;;;;;5053292;28;20561;-77
2021/01/03 08:45:32;;;;;;;29.55;27.17;;;1.70;89.80;;;;;;5052908;28;20231;-77
2021/01/03 08:48:05;;;;;;;31.45;29.05;;;1.70;89.40;;;;;;5054970;28;20197;-77
2021/01/03 08:50:35;;;;;;;32.65;30.10;;;1.80;89.80;;;;;;5053101;28;20261;-77
2021/01/03 08:53:04;;;;;;;29.90;27.55;;;2.00;89.20;;;;;;5065007;28;20192;-77
2021/01/03 08:55:34;;;;;;;30.45;28.08;;;2.10;88.90;;;;;;5072936;28;20188;-76
2021/01/03 08:58:02;;;;;;;32.65;29.95;;;2.00;88.90;;;;;;5072919;28;20188;-77
2021/01/03 09:00:32;;;;;;;31.58;29.13;;;2.10;88.60;;;;;;5073543;28;20691;-77
2021/01/03 09:03:00;;;;;;;30.10;27.70;;;2.10;88.50;;;;;;5060706;28;20196;-77
2021/01/03 09:05:31;;;;;;;229.75;49.22;;;2.00;90.30;;;;;;5052965;28;20227;-76
2021/01/03 09:07:58;;;;;;;33.70;30.98;;;2.20;90.00;;;;;;5053061;28;20613;-77
2021/01/03 09:10:31;;;;;;;44.17;30.52;;;2.30;89.90;;;;;;5053394;28;20200;-77
2021/01/03 09:13:14;;;;;;;30.60;28.17;;;2.40;88.70;;;;;;5072943;28;20210;-77
2021/01/03 09:15:43;;;;;;;32.72;30.13;;;2.50;88.20;;;;;;5073470;28;20196;-77
2021/01/03 09:18:21;;;;;;;32.22;29.65;;;2.40;87.90;;;;;;5073047;28;20200;-77
2021/01/03 09:20:48;;;;;;;30.30;27.90;;;2.40;88.20;;;;;;5073141;28;20260;-77
2021/01/03 09:23:20;;;;;;;31.02;28.52;;;2.30;87.60;;;;;;5054065;28;20193;-77
2021/01/03 09:25:52;;;;;;;32.75;30.15;;;2.40;88.60;;;;;;5052593;28;20261;-77
2021/01/03 09:28:23;;;;;;;29.92;27.63;;;2.40;87.80;;;;;;5052981;28;20206;-77
2021/01/03 09:30:50;;;;;;;27.35;25.38;;;2.50;87.20;;;;;;5052578;28;20204;-77
2021/01/03 09:33:24;;;;;;;28.45;26.42;;;2.50;86.60;;;;;;5052887;28;20197;-77
2021/01/03 09:36:03;;;;;;;29.55;27.35;;;2.50;86.10;;;;;;5052410;28;20211;-77
2021/01/03 09:38:51;;;;;;;28.98;26.77;;;2.50;85.80;;;;;;5052652;28;20279;-77
2021/01/03 09:41:32;;;;;;;29.20;27.15;;;2.50;85.70;;;;;;5043718;28;20208;-77
2021/01/03 09:44:08;;;;;;;30.55;28.05;;;2.40;85.50;;;;;;5060022;28;20669;-77
2021/01/03 09:46:40;;;;;;;30.75;28.27;;;2.50;86.10;;;;;;5072241;28;20223;-78
2021/01/03 09:49:19;;;;;;;29.77;27.55;;;2.50;85.90;;;;;;5072520;28;20212;-77
2021/01/03 09:51:54;;;;;;;29.70;27.60;;;2.70;85.40;;;;;;5074946;28;20203;-77
2021/01/03 09:54:23;;;;;;;31.63;29.23;;;2.60;85.00;;;;;;5063950;28;20184;-77
2021/01/03 09:56:52;;;;;;;30.85;28.30;;;2.50;85.60;;;;;;5052127;28;20242;-77
2021/01/03 09:59:20;;;;;;;30.08;27.58;;;2.70;85.90;;;;;;5052493;28;20200;-77
2021/01/03 10:01:49;;;;;;;30.20;27.67;;;2.70;85.00;;;;;;5052199;28;20666;-77
2021/01/03 10:04:21;;;;;;;29.77;27.48;;;3.00;85.00;;;;;;5062264;28;20223;-77
2021/01/03 10:06:51;;;;;;;31.83;29.42;;;3.10;83.60;;;;;;5075601;28;20219;-77
2021/01/03 10:09:30;;;;;;;30.13;27.88;;;2.90;83.20;;;;;;5075667;28;20202;-77
2021/01/03 10:11:57;;;;;;;31.70;29.10;;;2.90;83.70;;;;;;5076283;28;20225;-77
2021/01/03 10:14:29;;;;;;;29.33;26.95;;;2.90;83.70;;;;;;5076348;28;20264;-77
2021/01/03 10:16:56;;;;;;;32.00;29.60;;;2.90;85.30;;;;;;5075525;28;20215;-77
2021/01/03 10:19:24;;;;;;;32.70;30.15;;;3.00;84.60;;;;;;5076113;28;20192;-77
2021/01/03 10:21:51;;;;;;;31.60;29.30;;;3.00;83.10;;;;;;5075976;28;20199;-77
2021/01/03 10:24:20;;;;;;;31.00;28.70;;;3.00;83.30;;;;;;5071681;28;20189;-77
2021/01/03 10:26:48;;;;;;;32.10;29.65;;;3.20;82.90;;;;;;5055477;28;20228;-77
2021/01/03 10:29:16;;;;;;;31.23;29.08;;;3.20;82.30;;;;;;5056000;28;20565;-77
2021/01/03 10:31:45;;;;;;;30.20;27.80;;;3.10;82.10;;;;;;5066001;28;20211;-77
2021/01/03 10:34:13;;;;;;;31.02;28.42;;;3.10;82.50;;;;;;5075880;28;20257;-77
2021/01/03 10:36:40;;;;;;;30.15;28.02;;;3.10;82.40;;;;;;5075732;28;20215;-77
2021/01/03 10:39:08;;;;;;;32.28;29.77;;;2.90;82.90;;;;;;5075784;28;20195;-77
2021/01/03 10:41:35;;;;;;;30.50;28.33;;;2.90;84.00;;;;;;5067488;28;20204;-77
2021/01/03 10:44:03;;;;;;;30.70;28.50;;;2.90;83.20;;;;;;5059457;28;20197;-77
2021/01/03 10:46:30;;;;;;;30.73;28.42;;;3.00;84.50;;;;;;5056828;28;20255;-77
2021/01/03 10:48:57;;;;;;;30.45;28.20;;;3.10;83.30;;;;;;5055287;28;20670;-77
2021/01/03 10:51:32;;;;;;;31.30;28.80;;;3.10;83.40;;;;;;5062603;28;20188;-77
2021/01/03 10:53:59;;;;;;;29.83;27.70;;;3.20;82.90;;;;;;5075381;28;20203;-77
2021/01/03 10:56:25;;;;;;;32.33;29.88;;;3.20;82.90;;;;;;5075386;28;20211;-77
2021/01/03 10:58:52;;;;;;;28.80;26.70;;;3.10;82.90;;;;;;5075387;28;20204;-77
2021/01/03 11:01:19;;;;;;;30.98;28.48;;;3.10;83.10;;;;;;5068657;28;20678;-77
2021/01/03 11:03:46;;;;;;;32.65;30.10;;;3.00;83.70;;;;;;5055252;28;20192;-77
2021/01/03 11:06:13;;;;;;;226.27;45.83;;;3.10;83.70;;;;;;5055396;28;20704;-77
2021/01/03 11:08:39;;;;;;;31.83;29.27;;;3.10;85.40;;;;;;5059631;28;20193;-77
2021/01/03 11:11:06;;;;;;;237.93;43.85;;;3.10;84.60;;;;;;5056457;28;20219;-77
2021/01/03 11:13:33;;;;;;;31.65;29.15;;;3.10;88.70;;;;;;5055170;28;20218;-77
2021/01/03 11:15:59;;;;;;;30.23;27.92;;;3.10;92.70;;;;;;5054371;28;20209;-77
2021/01/03 11:18:25;;;;;;;1999.90;566.15;;;3.10;89.50;;;;;;5055998;28;20192;-77
2021/01/03 11:20:54;;;;;;;31.70;29.20;;;3.20;90.80;;;;;;5055262;28;20535;-77
2021/01/03 11:23:20;;;;;;;30.27;27.88;;;3.20;90.90;;;;;;5055098;28;20288;-77
2021/01/03 11:25:47;;;;;;;32.17;29.27;;;3.30;90.50;;;;;;5055085;28;20228;-77
2021/01/03 11:28:14;;;;;;;31.58;28.95;;;3.20;90.80;;;;;;5073265;28;20654;-77
2021/01/03 11:30:41;;;;;;;30.70;28.17;;;3.20;89.20;;;;;;5074836;28;20204;-77
2021/01/03 11:33:07;;;;;;;31.35;28.67;;;3.40;87.80;;;;;;5074824;28;20200;-77
2021/01/03 11:35:33;;;;;;;30.63;28.25;;;3.40;87.40;;;;;;5074407;28;20195;-77
2021/01/03 11:38:01;;;;;;;30.08;27.80;;;3.40;86.00;;;;;;5058105;28;20658;-77
2021/01/03 11:40:27;;;;;;;31.20;28.70;;;3.40;85.30;;;;;;5054512;28;20196;-77
2021/01/03 11:42:53;;;;;;;33.42;30.83;;;3.40;84.90;;;;;;5054658;28;20212;-77
2021/01/03 11:45:21;;;;;;;31.42;29.02;;;3.40;83.60;;;;;;5054862;28;20207;-77
2021/01/03 11:47:48;;;;;;;31.25;28.95;;;3.30;83.10;;;;;;5068118;28;20727;-77
2021/01/03 11:50:17;;;;;;;33.67;31.13;;;3.40;83.70;;;;;;5074358;28;20663;-77
2021/01/03 11:52:43;;;;;;;31.33;29.02;;;3.40;82.80;;;;;;5074143;28;20657;-77
2021/01/03 11:55:14;;;;;;;33.47;30.55;;;3.40;82.10;;;;;;5074366;28;20200;-77
2021/01/03 11:57:40;;;;;;;34.70;31.83;;;3.40;83.20;;;;;;5060660;28;20216;-77
2021/01/03 12:00:11;;;;;;;32.70;30.15;;;3.40;84.60;;;;;;5054882;28;20195;-77
2021/01/03 12:02:38;;;;;;;32.67;29.52;;;3.40;85.10;;;;;;5054072;28;20201;-77
2021/01/03 12:05:05;;;;;;;63.75;31.95;;;3.50;87.20;;;;;;5054231;28;20203;-77
2021/01/03 12:07:32;;;;;;;110.20;36.83;;;3.50;87.30;;;;;;5065499;28;20224;-77
2021/01/03 12:09:58;;;;;;;30.88;28.33;;;3.50;87.40;;;;;;5073369;28;20662;-77
2021/01/03 12:12:25;;;;;;;31.85;29.35;;;3.50;85.20;;;;;;5074044;28;20210;-77
2021/01/03 12:14:51;;;;;;;32.50;30.00;;;3.70;83.80;;;;;;5073894;28;20226;-77
2021/01/03 12:17:20;;;;;;;33.20;30.60;;;3.60;83.10;;;;;;5063568;28;20209;-77
2021/01/03 12:19:48;;;;;;;32.58;30.08;;;3.60;82.90;;;;;;5053828;28;20254;-78
2021/01/03 12:22:15;;;;;;;33.17;30.45;;;3.60;82.20;;;;;;5053863;28;20207;-77
2021/01/03 12:24:42;;;;;;;34.13;31.17;;;3.50;82.90;;;;;;5053986;28;20200;-77
2021/01/03 12:27:09;;;;;;;32.55;29.65;;;3.60;83.10;;;;;;5060967;28;20273;-77
2021/01/03 12:29:37;;;;;;;33.00;30.40;;;3.50;82.70;;;;;;5073737;28;20290;-77
2021/01/03 12:32:07;;;;;;;33.78;30.95;;;3.50;82.10;;;;;;5073722;28;20204;-76
2021/01/03 12:34:35;;;;;;;35.60;32.70;;;3.50;82.60;;;;;;5073621;28;20200;-77
2021/01/03 12:37:04;;;;;;;34.17;31.50;;;3.40;84.60;;;;;;5073104;28;20628;-77
2021/01/03 12:39:30;;;;;;;35.15;32.25;;;3.30;83.80;;;;;;5062724;28;20199;-77
2021/01/03 12:41:57;;;;;;;33.33;30.63;;;3.40;83.50;;;;;;5053302;28;20330;-77
2021/01/03 12:44:24;;;;;;;33.20;30.60;;;3.30;82.80;;;;;;5053451;28;20255;-77
2021/01/03 12:46:51;;;;;;;35.00;32.10;;;3.30;83.50;;;;;;5052819;28;20220;-77
2021/01/03 12:49:17;;;;;;;34.67;31.92;;;3.30;85.00;;;;;;5053259;28;20196;-77
2021/01/03 12:51:44;;;;;;;32.85;30.05;;;3.40;83.80;;;;;;5053628;28;20193;-77
2021/01/03 12:54:10;;;;;;;34.25;31.40;;;3.20;83.10;;;;;;5053181;28;20196;-77